sensor_id;sensor_type;location;lat;lon;timestamp;pressure;altitude;pressure_sealevel;temperature;humidity
78613;BME280;67933;51.060;3.638;2023-10-13T00:01:11;101292.41;;;16.50;100.00
78613;BME280;67933;51.060;3.638;2023-10-13T00:03:37;101282.44;;;16.52;100.00
78613;BME280;67933;51.060;3.638;2023-10-13T00:06:02;101278.06;;;16.51;100.00
78613;BME280;67933;51.060;3.638;2023-10-13T00:08:31;101273.56;;;16.52;100.00
78613;BME280;67933;51.060;3.638;2023-10-13T00:10:57;101267.13;;;16.54;100.00
78613;BME280;67933;51.060;3.638;2023-10-13T00:13:28;101271.34;;;16.46;100.00
78613;BME280;67933;51.060;3.638;2023-10-13T00:15:57;101262.69;;;16.42;100.00
78613;BME280;67933;51.060;3.638;2023-10-13T00:18:31;101262.81;;;16.41;100.00
78613;BME280;67933;51.060;3.638;2023-10-13T00:21:07;101257.78;;;16.36;100.00
78613;BME280;67933;51.060;3.638;2023-10-13T00:23:43;101250.72;;;16.35;100.00
78613;BME280;67933;51.060;3.638;2023-10-13T00:26:21;101248.91;;;16.36;100.00
78613;BME280;67933;51.060;3.638;2023-10-13T00:28:52;101243.06;;;16.42;100.00
78613;BME280;67933;51.060;3.638;2023-10-13T00:31:42;101242.25;;;16.41;100.00
78613;BME280;67933;51.060;3.638;2023-10-13T00:34:13;101242.97;;;16.43;100.00
78613;BME280;67933;51.060;3.638;2023-10-13T00:36:50;101220.69;;;16.43;100.00
78613;BME280;67933;51.060;3.638;2023-10-13T00:39:35;101225.19;;;16.42;100.00
78613;BME280;67933;51.060;3.638;2023-10-13T00:42:11;101223.25;;;16.44;100.00
78613;BME280;67933;51.060;3.638;2023-10-13T00:44:51;101216.19;;;16.43;100.00
78613;BME280;67933;51.060;3.638;2023-10-13T00:47:20;101231.19;;;16.46;100.00
78613;BME280;67933;51.060;3.638;2023-10-13T00:50:01;101226.69;;;16.46;100.00
78613;BME280;67933;51.060;3.638;2023-10-13T00:52:26;101237.41;;;16.46;100.00
78613;BME280;67933;51.060;3.638;2023-10-13T00:54:52;101218.75;;;16.45;100.00
78613;BME280;67933;51.060;3.638;2023-10-13T00:57:19;101209.38;;;16.39;100.00
78613;BME280;67933;51.060;3.638;2023-10-13T00:59:56;101210.13;;;16.41;100.00
78613;BME280;67933;51.060;3.638;2023-10-13T01:02:25;101192.19;;;16.42;100.00
78613;BME280;67933;51.060;3.638;2023-10-13T01:05:07;101202.91;;;16.42;100.00
78613;BME280;67933;51.060;3.638;2023-10-13T01:07:35;101198.41;;;16.42;100.00
78613;BME280;67933;51.060;3.638;2023-10-13T01:10:09;101194.06;;;16.41;100.00
78613;BME280;67933;51.060;3.638;2023-10-13T01:12:38;101192.34;;;16.40;100.00
78613;BME280;67933;51.060;3.638;2023-10-13T01:15:04;101172.75;;;16.40;100.00
78613;BME280;67933;51.060;3.638;2023-10-13T01:17:32;101170.41;;;16.35;100.00
78613;BME280;67933;51.060;3.638;2023-10-13T01:19:59;101161.28;;;16.38;100.00
78613;BME280;67933;51.060;3.638;2023-10-13T01:22:25;101156.91;;;16.37;100.00
78613;BME280;67933;51.060;3.638;2023-10-13T01:24:52;101163.09;;;16.37;100.00
78613;BME280;67933;51.060;3.638;2023-10-13T01:27:29;101166.53;;;16.39;100.00
78613;BME280;67933;51.060;3.638;2023-10-13T01:29:54;101163.84;;;16.39;100.00
78613;BME280;67933;51.060;3.638;2023-10-13T01:32:31;101153.25;;;16.38;100.00
78613;BME280;67933;51.060;3.638;2023-10-13T01:34:56;101155.81;;;16.39;100.00
78613;BME280;67933;51.060;3.638;2023-10-13T01:37:30;101147.25;;;16.34;100.00
78613;BME280;67933;51.060;3.638;2023-10-13T01:39:55;101129.25;;;16.36;100.00
78613;BME280;67933;51.060;3.638;2023-10-13T01:42:20;101126.59;;;16.36;100.00
78613;BME280;67933;51.060;3.638;2023-10-13T01:44:47;101119.41;;;16.37;100.00
78613;BME280;67933;51.060;3.638;2023-10-13T01:47:13;101114.06;;;16.37;100.00
78613;BME280;67933;51.060;3.638;2023-10-13T01:49:39;101104.19;;;16.37;100.00
78613;BME280;67933;51.060;3.638;2023-10-13T01:52:10;101102.59;;;16.35;100.00
78613;BME280;67933;51.060;3.638;2023-10-13T01:54:37;101097.13;;;16.36;100.00
78613;BME280;67933;51.060;3.638;2023-10-13T01:57:09;101093.59;;;16.36;100.00
78613;BME280;67933;51.060;3.638;2023-10-13T01:59:40;101098.09;;;16.35;100.00
78613;BME280;67933;51.060;3.638;2023-10-13T02:02:10;101090.81;;;16.37;100.00
78613;BME280;67933;51.060;3.638;2023-10-13T02:04:41;101091.78;;;16.36;100.00
78613;BME280;67933;51.060;3.638;2023-10-13T02:07:21;101070.97;;;16.40;100.00
78613;BME280;67933;51.060;3.638;2023-10-13T02:09:51;101064.88;;;16.38;100.00
78613;BME280;67933;51.060;3.638;2023-10-13T02:12:20;101068.19;;;16.41;100.00
78613;BME280;67933;51.060;3.638;2023-10-13T02:14:50;101063.81;;;16.40;100.00
78613;BME280;67933;51.060;3.638;2023-10-13T02:17:15;101055.50;;;16.43;100.00
78613;BME280;67933;51.060;3.638;2023-10-13T02:19:42;101048.44;;;16.42;100.00
78613;BME280;67933;51.060;3.638;2023-10-13T02:22:11;101046.41;;;16.46;100.00
78613;BME280;67933;51.060;3.638;2023-10-13T02:24:37;101037.97;;;16.50;100.00
78613;BME280;67933;51.060;3.638;2023-10-13T02:27:08;101025.56;;;16.49;100.00
78613;BME280;67933;51.060;3.638;2023-10-13T02:29:40;101031.66;;;16.51;100.00
78613;BME280;67933;51.060;3.638;2023-10-13T02:32:06;101038.22;;;16.59;100.00
78613;BME280;67933;51.060;3.638;2023-10-13T02:34:43;101036.09;;;16.64;100.00
78613;BME280;67933;51.060;3.638;2023-10-13T02:37:10;101029.59;;;16.66;100.00
78613;BME280;67933;51.060;3.638;2023-10-13T02:39:36;101022.94;;;16.72;100.00
78613;BME280;67933;51.060;3.638;2023-10-13T02:42:06;101025.00;;;16.79;100.00
78613;BME280;67933;51.060;3.638;2023-10-13T02:44:33;101018.28;;;16.85;100.00
78613;BME280;67933;51.060;3.638;2023-10-13T02:47:02;101023.97;;;16.91;100.00
78613;BME280;67933;51.060;3.638;2023-10-13T02:49:31;101015.56;;;16.96;100.00
78613;BME280;67933;51.060;3.638;2023-10-13T02:51:59;101019.31;;;17.05;100.00
78613;BME280;67933;51.060;3.638;2023-10-13T02:54:30;101011.63;;;17.11;100.00
78613;BME280;67933;51.060;3.638;2023-10-13T02:56:55;101012.13;;;17.16;100.00
78613;BME280;67933;51.060;3.638;2023-10-13T02:59:29;101008.19;;;17.20;100.00
78613;BME280;67933;51.060;3.638;2023-10-13T03:02:12;101001.50;;;17.26;100.00
78613;BME280;67933;51.060;3.638;2023-10-13T03:04:46;101000.34;;;17.28;100.00
78613;BME280;67933;51.060;3.638;2023-10-13T03:07:11;101001.94;;;17.31;100.00
78613;BME280;67933;51.060;3.638;2023-10-13T03:09:41;101000.69;;;17.35;100.00
78613;BME280;67933;51.060;3.638;2023-10-13T03:12:15;101000.22;;;17.41;100.00
78613;BME280;67933;51.060;3.638;2023-10-13T03:14:40;100990.56;;;17.39;100.00
78613;BME280;67933;51.060;3.638;2023-10-13T03:17:06;100999.34;;;17.41;100.00
78613;BME280;67933;51.060;3.638;2023-10-13T03:19:34;100984.97;;;17.42;100.00
78613;BME280;67933;51.060;3.638;2023-10-13T03:22:05;100982.97;;;17.44;100.00
78613;BME280;67933;51.060;3.638;2023-10-13T03:24:35;100987.13;;;17.48;100.00
78613;BME280;67933;51.060;3.638;2023-10-13T03:27:03;100982.88;;;17.45;100.00
78613;BME280;67933;51.060;3.638;2023-10-13T03:29:38;100988.34;;;17.44;100.00
78613;BME280;67933;51.060;3.638;2023-10-13T03:32:15;100982.97;;;17.44;100.00
78613;BME280;67933;51.060;3.638;2023-10-13T03:34:45;100982.00;;;17.45;100.00
78613;BME280;67933;51.060;3.638;2023-10-13T03:37:26;100968.59;;;17.45;100.00
78613;BME280;67933;51.060;3.638;2023-10-13T03:40:05;100964.94;;;17.46;100.00
78613;BME280;67933;51.060;3.638;2023-10-13T03:42:43;100956.16;;;17.44;100.00
78613;BME280;67933;51.060;3.638;2023-10-13T03:45:09;100963.50;;;17.42;100.00
78613;BME280;67933;51.060;3.638;2023-10-13T03:47:36;100950.78;;;17.44;100.00
78613;BME280;67933;51.060;3.638;2023-10-13T03:50:03;100957.00;;;17.44;100.00
78613;BME280;67933;51.060;3.638;2023-10-13T03:52:41;100932.16;;;17.42;100.00
78613;BME280;67933;51.060;3.638;2023-10-13T03:55:07;100939.50;;;17.40;100.00
78613;BME280;67933;51.060;3.638;2023-10-13T03:57:41;100920.44;;;17.43;100.00
78613;BME280;67933;51.060;3.638;2023-10-13T04:00:07;100892.78;;;17.43;100.00
78613;BME280;67933;51.060;3.638;2023-10-13T04:02:46;100884.28;;;17.38;100.00
78613;BME280;67933;51.060;3.638;2023-10-13T04:05:17;100851.38;;;17.36;100.00
78613;BME280;67933;51.060;3.638;2023-10-13T04:08:04;100845.44;;;17.32;100.00
78613;BME280;67933;51.060;3.638;2023-10-13T04:10:48;100861.78;;;17.29;100.00
78613;BME280;67933;51.060;3.638;2023-10-13T04:13:16;100871.41;;;17.31;100.00
78613;BME280;67933;51.060;3.638;2023-10-13T04:16:00;100866.03;;;17.31;100.00
78613;BME280;67933;51.060;3.638;2023-10-13T04:18:44;100863.59;;;17.28;100.00
78613;BME280;67933;51.060;3.638;2023-10-13T04:21:36;100857.25;;;17.29;100.00
78613;BME280;67933;51.060;3.638;2023-10-13T04:24:08;100857.78;;;17.23;100.00
78613;BME280;67933;51.060;3.638;2023-10-13T04:26:34;100844.25;;;17.25;100.00
78613;BME280;67933;51.060;3.638;2023-10-13T04:29:22;100830.97;;;17.23;100.00
78613;BME280;67933;51.060;3.638;2023-10-13T04:32:15;100820.50;;;17.20;100.00
78613;BME280;67933;51.060;3.638;2023-10-13T04:34:43;100828.44;;;17.22;100.00
78613;BME280;67933;51.060;3.638;2023-10-13T04:37:12;100828.31;;;17.23;100.00
78613;BME280;67933;51.060;3.638;2023-10-13T04:39:54;100823.91;;;17.22;100.00
78613;BME280;67933;51.060;3.638;2023-10-13T04:42:23;100821.22;;;17.22;100.00
78613;BME280;67933;51.060;3.638;2023-10-13T04:45:26;100819.53;;;17.21;100.00
78613;BME280;67933;51.060;3.638;2023-10-13T04:47:59;100809.78;;;17.20;100.00
78613;BME280;67933;51.060;3.638;2023-10-13T04:50:46;100808.94;;;17.20;100.00
78613;BME280;67933;51.060;3.638;2023-10-13T04:53:16;100806.41;;;17.18;100.00
78613;BME280;67933;51.060;3.638;2023-10-13T04:56:20;100808.81;;;17.21;100.00
78613;BME280;67933;51.060;3.638;2023-10-13T04:59:05;100788.47;;;17.19;100.00
78613;BME280;67933;51.060;3.638;2023-10-13T05:01:49;100778.34;;;17.22;100.00
78613;BME280;67933;51.060;3.638;2023-10-13T05:04:46;100783.25;;;17.17;100.00
78613;BME280;67933;51.060;3.638;2023-10-13T05:07:32;100774.22;;;17.18;100.00
78613;BME280;67933;51.060;3.638;2023-10-13T05:10:17;100769.13;;;17.15;100.00
78613;BME280;67933;51.060;3.638;2023-10-13T05:13:00;100765.72;;;17.13;100.00
78613;BME280;67933;51.060;3.638;2023-10-13T05:15:47;100750.91;;;17.09;100.00
78613;BME280;67933;51.060;3.638;2023-10-13T05:18:31;100760.88;;;17.07;100.00
78613;BME280;67933;51.060;3.638;2023-10-13T05:21:16;100751.28;;;17.05;100.00
78613;BME280;67933;51.060;3.638;2023-10-13T05:24:00;100744.09;;;17.05;100.00
78613;BME280;67933;51.060;3.638;2023-10-13T05:26:44;100749.44;;;17.05;100.00
78613;BME280;67933;51.060;3.638;2023-10-13T05:29:28;100743.28;;;17.14;100.00
78613;BME280;67933;51.060;3.638;2023-10-13T05:32:12;100737.09;;;17.14;100.00
78613;BME280;67933;51.060;3.638;2023-10-13T05:34:56;100721.97;;;17.13;100.00
78613;BME280;67933;51.060;3.638;2023-10-13T05:38:00;100738.38;;;17.19;100.00
78613;BME280;67933;51.060;3.638;2023-10-13T05:41:01;100722.03;;;17.22;100.00
78613;BME280;67933;51.060;3.638;2023-10-13T05:43:45;100716.78;;;17.21;100.00
78613;BME280;67933;51.060;3.638;2023-10-13T05:46:30;100721.66;;;17.37;100.00
78613;BME280;67933;51.060;3.638;2023-10-13T05:49:02;100710.94;;;17.37;100.00
78613;BME280;67933;51.060;3.638;2023-10-13T05:51:31;100699.94;;;17.40;100.00
78613;BME280;67933;51.060;3.638;2023-10-13T05:54:12;100698.28;;;17.48;100.00
78613;BME280;67933;51.060;3.638;2023-10-13T05:56:45;100699.84;;;17.51;100.00
78613;BME280;67933;51.060;3.638;2023-10-13T05:59:30;100692.63;;;17.51;100.00
78613;BME280;67933;51.060;3.638;2023-10-13T06:02:16;100693.22;;;17.55;100.00
78613;BME280;67933;51.060;3.638;2023-10-13T06:05:02;100693.09;;;17.56;100.00
78613;BME280;67933;51.060;3.638;2023-10-13T06:07:45;100693.09;;;17.56;100.00
78613;BME280;67933;51.060;3.638;2023-10-13T06:10:29;100695.34;;;17.61;100.00
78613;BME280;67933;51.060;3.638;2023-10-13T06:13:13;100689.03;;;17.62;100.00
78613;BME280;67933;51.060;3.638;2023-10-13T06:15:57;100673.34;;;17.57;100.00
78613;BME280;67933;51.060;3.638;2023-10-13T06:18:41;100684.41;;;17.64;100.00
78613;BME280;67933;51.060;3.638;2023-10-13T06:21:25;100670.25;;;17.62;100.00
78613;BME280;67933;51.060;3.638;2023-10-13T06:24:09;100675.38;;;17.65;100.00
78613;BME280;67933;51.060;3.638;2023-10-13T06:26:53;100661.53;;;17.69;100.00
78613;BME280;67933;51.060;3.638;2023-10-13T06:29:37;100656.44;;;17.76;100.00
78613;BME280;67933;51.060;3.638;2023-10-13T06:32:02;100647.41;;;17.77;100.00
78613;BME280;67933;51.060;3.638;2023-10-13T06:34:38;100653.75;;;17.76;100.00
78613;BME280;67933;51.060;3.638;2023-10-13T06:37:10;100666.09;;;17.88;100.00
78613;BME280;67933;51.060;3.638;2023-10-13T06:39:55;100665.22;;;17.97;100.00
78613;BME280;67933;51.060;3.638;2023-10-13T06:42:27;100679.91;;;17.93;100.00
78613;BME280;67933;51.060;3.638;2023-10-13T06:44:54;100666.34;;;17.85;100.00
78613;BME280;67933;51.060;3.638;2023-10-13T06:47:20;100651.66;;;17.89;100.00
78613;BME280;67933;51.060;3.638;2023-10-13T06:49:46;100651.66;;;17.89;100.00
78613;BME280;67933;51.060;3.638;2023-10-13T06:52:14;100656.03;;;17.90;100.00
78613;BME280;67933;51.060;3.638;2023-10-13T06:54:41;100653.94;;;18.03;100.00
78613;BME280;67933;51.060;3.638;2023-10-13T06:57:07;100643.63;;;18.08;100.00
78613;BME280;67933;51.060;3.638;2023-10-13T06:59:39;100662.97;;;18.12;100.00
78613;BME280;67933;51.060;3.638;2023-10-13T07:02:06;100658.44;;;18.22;100.00
78613;BME280;67933;51.060;3.638;2023-10-13T07:04:33;100629.88;;;18.21;100.00
78613;BME280;67933;51.060;3.638;2023-10-13T07:06:59;100657.88;;;18.28;100.00
78613;BME280;67933;51.060;3.638;2023-10-13T07:09:31;100654.06;;;18.31;100.00
78613;BME280;67933;51.060;3.638;2023-10-13T07:12:00;100649.81;;;18.38;100.00
78613;BME280;67933;51.060;3.638;2023-10-13T07:14:27;100660.41;;;18.39;100.00
78613;BME280;67933;51.060;3.638;2023-10-13T07:17:05;100650.53;;;18.40;100.00
78613;BME280;67933;51.060;3.638;2023-10-13T07:19:33;100649.41;;;18.42;100.00
78613;BME280;67933;51.060;3.638;2023-10-13T07:22:00;100637.75;;;18.52;100.00
78613;BME280;67933;51.060;3.638;2023-10-13T07:24:44;100640.31;;;18.53;100.00
78613;BME280;67933;51.060;3.638;2023-10-13T07:27:10;100642.75;;;18.56;100.00
78613;BME280;67933;51.060;3.638;2023-10-13T07:29:36;100643.69;;;18.74;100.00
78613;BME280;67933;51.060;3.638;2023-10-13T07:32:02;100643.53;;;18.76;100.00
78613;BME280;67933;51.060;3.638;2023-10-13T07:34:29;100642.56;;;18.77;100.00
78613;BME280;67933;51.060;3.638;2023-10-13T07:36:58;100639.72;;;18.78;100.00
78613;BME280;67933;51.060;3.638;2023-10-13T07:39:28;100641.56;;;18.78;100.00
78613;BME280;67933;51.060;3.638;2023-10-13T07:41:54;100624.31;;;18.80;99.71
78613;BME280;67933;51.060;3.638;2023-10-13T07:44:23;100628.97;;;18.78;100.00
78613;BME280;67933;51.060;3.638;2023-10-13T07:46:57;100645.09;;;18.78;99.60
78613;BME280;67933;51.060;3.638;2023-10-13T07:49:32;100642.53;;;18.87;98.92
78613;BME280;67933;51.060;3.638;2023-10-13T07:51:59;100638.84;;;18.88;99.48
78613;BME280;67933;51.060;3.638;2023-10-13T07:54:26;100643.06;;;18.90;99.27
78613;BME280;67933;51.060;3.638;2023-10-13T07:56:52;100646.03;;;18.97;98.53
78613;BME280;67933;51.060;3.638;2023-10-13T07:59:20;100632.84;;;19.03;98.11
78613;BME280;67933;51.060;3.638;2023-10-13T08:01:47;100650.09;;;19.10;97.61
78613;BME280;67933;51.060;3.638;2023-10-13T08:04:12;100625.16;;;19.18;95.88
78613;BME280;67933;51.060;3.638;2023-10-13T08:06:40;100625.69;;;19.21;96.21
78613;BME280;67933;51.060;3.638;2023-10-13T08:09:07;100616.84;;;19.29;95.56
78613;BME280;67933;51.060;3.638;2023-10-13T08:11:33;100610.91;;;19.35;94.80
78613;BME280;67933;51.060;3.638;2023-10-13T08:14:06;100607.19;;;19.36;94.25
78613;BME280;67933;51.060;3.638;2023-10-13T08:16:49;100614.16;;;19.29;94.98
78613;BME280;67933;51.060;3.638;2023-10-13T08:19:15;100612.66;;;19.27;95.15
78613;BME280;67933;51.060;3.638;2023-10-13T08:21:46;100606.41;;;19.26;95.28
78613;BME280;67933;51.060;3.638;2023-10-13T08:24:17;100614.63;;;19.25;94.94
78613;BME280;67933;51.060;3.638;2023-10-13T08:26:51;100599.72;;;19.30;94.04
78613;BME280;67933;51.060;3.638;2023-10-13T08:29:35;100607.50;;;19.33;94.81
78613;BME280;67933;51.060;3.638;2023-10-13T08:32:19;100602.59;;;19.46;94.20
78613;BME280;67933;51.060;3.638;2023-10-13T08:34:47;100586.06;;;19.51;93.34
78613;BME280;67933;51.060;3.638;2023-10-13T08:37:13;100602.34;;;19.49;92.95
78613;BME280;67933;51.060;3.638;2023-10-13T08:39:52;100609.13;;;19.44;93.51
78613;BME280;67933;51.060;3.638;2023-10-13T08:42:34;100600.81;;;19.37;92.97
78613;BME280;67933;51.060;3.638;2023-10-13T08:47:58;100601.81;;;19.36;93.30
78613;BME280;67933;51.060;3.638;2023-10-13T08:50:35;100587.44;;;19.45;92.71
78613;BME280;67933;51.060;3.638;2023-10-13T08:56:02;100582.44;;;19.60;91.85
78613;BME280;67933;51.060;3.638;2023-10-13T08:58:42;100601.03;;;19.53;92.10
78613;BME280;67933;51.060;3.638;2023-10-13T09:01:33;100574.16;;;19.44;93.01
78613;BME280;67933;51.060;3.638;2023-10-13T09:04:15;100585.09;;;19.42;92.57
78613;BME280;67933;51.060;3.638;2023-10-13T09:06:49;100578.53;;;19.45;91.80
78613;BME280;67933;51.060;3.638;2023-10-13T09:12:15;100567.25;;;19.41;90.88
78613;BME280;67933;51.060;3.638;2023-10-13T09:14:54;100571.31;;;19.45;90.05
78613;BME280;67933;51.060;3.638;2023-10-13T09:17:29;100572.63;;;19.41;90.58
78613;BME280;67933;51.060;3.638;2023-10-13T09:19:59;100554.09;;;19.38;90.58
78613;BME280;67933;51.060;3.638;2023-10-13T09:22:26;100554.78;;;19.40;89.96
78613;BME280;67933;51.060;3.638;2023-10-13T09:25:02;100548.25;;;19.43;89.40
78613;BME280;67933;51.060;3.638;2023-10-13T09:27:32;100552.06;;;19.50;88.36
78613;BME280;67933;51.060;3.638;2023-10-13T09:30:02;100540.34;;;19.59;88.58
78613;BME280;67933;51.060;3.638;2023-10-13T09:33:03;100529.44;;;19.60;88.15
78613;BME280;67933;51.060;3.638;2023-10-13T09:35:34;100547.28;;;19.62;87.19
78613;BME280;67933;51.060;3.638;2023-10-13T09:38:02;100531.75;;;19.55;88.17
78613;BME280;67933;51.060;3.638;2023-10-13T09:40:29;100537.44;;;19.52;88.19
78613;BME280;67933;51.060;3.638;2023-10-13T09:43:00;100533.25;;;19.40;88.92
78613;BME280;67933;51.060;3.638;2023-10-13T09:45:40;100555.50;;;19.42;87.20
78613;BME280;67933;51.060;3.638;2023-10-13T09:48:10;100540.00;;;19.44;86.49
78613;BME280;67933;51.060;3.638;2023-10-13T09:50:43;100540.41;;;19.32;88.91
78613;BME280;67933;51.060;3.638;2023-10-13T09:53:10;100550.47;;;19.30;88.51
78613;BME280;67933;51.060;3.638;2023-10-13T09:55:43;100547.84;;;19.20;88.37
78613;BME280;67933;51.060;3.638;2023-10-13T09:58:11;100551.78;;;19.26;87.84
78613;BME280;67933;51.060;3.638;2023-10-13T10:00:54;100543.09;;;19.32;87.24
78613;BME280;67933;51.060;3.638;2023-10-13T10:03:23;100543.88;;;19.42;86.24
78613;BME280;67933;51.060;3.638;2023-10-13T10:06:21;100547.09;;;19.45;86.06
78613;BME280;67933;51.060;3.638;2023-10-13T10:09:04;100546.44;;;19.16;89.25
78613;BME280;67933;51.060;3.638;2023-10-13T10:17:21;100557.00;;;19.00;89.85
78613;BME280;67933;51.060;3.638;2023-10-13T10:19:51;100544.50;;;19.08;90.06
78613;BME280;67933;51.060;3.638;2023-10-13T10:22:31;100551.81;;;19.16;89.54
78613;BME280;67933;51.060;3.638;2023-10-13T10:25:03;100546.06;;;19.29;88.34
78613;BME280;67933;51.060;3.638;2023-10-13T10:27:32;100529.25;;;19.44;87.19
78613;BME280;67933;51.060;3.638;2023-10-13T10:29:59;100541.13;;;19.51;87.60
78613;BME280;67933;51.060;3.638;2023-10-13T10:35:11;100515.75;;;19.72;85.32
78613;BME280;67933;51.060;3.638;2023-10-13T10:37:46;100530.66;;;19.84;85.30
78613;BME280;67933;51.060;3.638;2023-10-13T10:40:16;100523.19;;;19.95;84.71
78613;BME280;67933;51.060;3.638;2023-10-13T10:43:00;100524.47;;;20.09;83.70
78613;BME280;67933;51.060;3.638;2023-10-13T10:45:27;100515.50;;;20.26;83.14
78613;BME280;67933;51.060;3.638;2023-10-13T10:47:59;100519.63;;;20.39;81.91
78613;BME280;67933;51.060;3.638;2023-10-13T10:50:27;100502.31;;;20.41;81.49
78613;BME280;67933;51.060;3.638;2023-10-13T10:53:05;100507.88;;;20.40;81.84
78613;BME280;67933;51.060;3.638;2023-10-13T10:55:37;100499.47;;;20.43;80.01
78613;BME280;67933;51.060;3.638;2023-10-13T10:58:03;100506.38;;;20.45;81.20
78613;BME280;67933;51.060;3.638;2023-10-13T11:00:48;100492.44;;;20.50;80.49
78613;BME280;67933;51.060;3.638;2023-10-13T11:03:16;100501.91;;;20.62;78.62
78613;BME280;67933;51.060;3.638;2023-10-13T11:05:46;100498.78;;;20.74;78.03
78613;BME280;67933;51.060;3.638;2023-10-13T11:08:24;100500.13;;;20.79;77.89
78613;BME280;67933;51.060;3.638;2023-10-13T11:10:58;100486.50;;;20.80;78.16
78613;BME280;67933;51.060;3.638;2023-10-13T11:13:26;100477.25;;;20.91;77.29
78613;BME280;67933;51.060;3.638;2023-10-13T11:15:56;100476.78;;;21.03;76.12
78613;BME280;67933;51.060;3.638;2023-10-13T11:18:30;100472.31;;;21.20;75.18
78613;BME280;67933;51.060;3.638;2023-10-13T11:21:03;100481.94;;;21.39;74.93
78613;BME280;67933;51.060;3.638;2023-10-13T11:23:33;100480.28;;;21.54;74.58
78613;BME280;67933;51.060;3.638;2023-10-13T11:26:01;100480.28;;;21.54;73.20
78613;BME280;67933;51.060;3.638;2023-10-13T11:28:29;100460.38;;;21.55;72.63
78613;BME280;67933;51.060;3.638;2023-10-13T11:30:55;100465.75;;;21.55;73.10
78613;BME280;67933;51.060;3.638;2023-10-13T11:33:25;100467.78;;;21.53;74.00
78613;BME280;67933;51.060;3.638;2023-10-13T11:35:52;100476.72;;;21.45;73.73
78613;BME280;67933;51.060;3.638;2023-10-13T11:38:29;100473.19;;;21.37;74.94
78613;BME280;67933;51.060;3.638;2023-10-13T11:41:04;100470.81;;;21.26;74.17
78613;BME280;67933;51.060;3.638;2023-10-13T11:43:36;100462.53;;;21.27;75.29
78613;BME280;67933;51.060;3.638;2023-10-13T11:46:08;100460.00;;;21.26;74.13
78613;BME280;67933;51.060;3.638;2023-10-13T11:48:33;100459.31;;;21.24;74.05
78613;BME280;67933;51.060;3.638;2023-10-13T11:51:01;100444.50;;;21.20;73.95
78613;BME280;67933;51.060;3.638;2023-10-13T11:53:32;100447.00;;;21.29;73.58
78613;BME280;67933;51.060;3.638;2023-10-13T11:55:58;100440.28;;;21.33;72.94
78613;BME280;67933;51.060;3.638;2023-10-13T11:58:23;100432.88;;;21.43;73.05
78613;BME280;67933;51.060;3.638;2023-10-13T12:00:48;100437.91;;;21.55;72.79
78613;BME280;67933;51.060;3.638;2023-10-13T12:03:19;100445.34;;;21.69;72.18
78613;BME280;67933;51.060;3.638;2023-10-13T12:06:03;100442.97;;;22.06;70.55
78613;BME280;67933;51.060;3.638;2023-10-13T12:08:44;100449.09;;;22.39;69.27
78613;BME280;67933;51.060;3.638;2023-10-13T12:11:18;100431.19;;;22.85;67.50
78613;BME280;67933;51.060;3.638;2023-10-13T12:13:56;100438.88;;;23.05;65.35
78613;BME280;67933;51.060;3.638;2023-10-13T12:16:22;100445.59;;;23.09;66.90
78613;BME280;67933;51.060;3.638;2023-10-13T12:18:48;100457.72;;;22.90;66.21
78613;BME280;67933;51.060;3.638;2023-10-13T12:21:19;100436.56;;;22.93;65.61
78613;BME280;67933;51.060;3.638;2023-10-13T12:23:46;100450.16;;;23.08;66.62
78613;BME280;67933;51.060;3.638;2023-10-13T12:26:12;100437.44;;;22.86;66.87
78613;BME280;67933;51.060;3.638;2023-10-13T12:28:58;100436.34;;;22.64;67.54
78613;BME280;67933;51.060;3.638;2023-10-13T12:31:32;100441.38;;;22.36;69.05
78613;BME280;67933;51.060;3.638;2023-10-13T12:33:58;100443.59;;;22.16;70.18
78613;BME280;67933;51.060;3.638;2023-10-13T12:36:32;100436.88;;;21.96;70.36
78613;BME280;67933;51.060;3.638;2023-10-13T12:39:06;100442.84;;;21.67;72.90
78613;BME280;67933;51.060;3.638;2023-10-13T12:41:32;100432.69;;;21.45;74.26
78613;BME280;67933;51.060;3.638;2023-10-13T12:44:16;100427.47;;;21.19;75.92
78613;BME280;67933;51.060;3.638;2023-10-13T12:47:00;100430.75;;;20.89;78.81
78613;BME280;67933;51.060;3.638;2023-10-13T12:49:44;100430.34;;;20.75;79.43
78613;BME280;67933;51.060;3.638;2023-10-13T12:52:12;100424.78;;;20.69;80.28
78613;BME280;67933;51.060;3.638;2023-10-13T12:54:47;100422.59;;;20.64;80.27
78613;BME280;67933;51.060;3.638;2023-10-13T12:57:24;100419.03;;;20.64;80.02
78613;BME280;67933;51.060;3.638;2023-10-13T12:59:50;100411.97;;;20.71;79.28
78613;BME280;67933;51.060;3.638;2023-10-13T13:04:47;100406.97;;;20.92;77.32
78613;BME280;67933;51.060;3.638;2023-10-13T13:07:19;100413.06;;;20.94;76.75
78613;BME280;67933;51.060;3.638;2023-10-13T13:09:45;100399.41;;;20.96;77.28
78613;BME280;67933;51.060;3.638;2023-10-13T13:12:11;100410.69;;;20.99;76.23
78613;BME280;67933;51.060;3.638;2023-10-13T13:14:39;100414.75;;;21.03;77.86
78613;BME280;67933;51.060;3.638;2023-10-13T13:17:11;100437.41;;;21.19;75.08
78613;BME280;67933;51.060;3.638;2023-10-13T13:19:37;100439.44;;;21.33;72.97
78613;BME280;67933;51.060;3.638;2023-10-13T13:22:07;100422.25;;;21.42;73.20
78613;BME280;67933;51.060;3.638;2023-10-13T13:24:42;100424.59;;;21.45;72.30
78613;BME280;67933;51.060;3.638;2023-10-13T13:27:13;100430.66;;;21.47;72.55
78613;BME280;67933;51.060;3.638;2023-10-13T13:29:43;100414.81;;;21.44;73.91
78613;BME280;67933;51.060;3.638;2023-10-13T13:32:09;100408.41;;;21.37;73.62
78613;BME280;67933;51.060;3.638;2023-10-13T13:34:50;100418.16;;;21.30;74.89
78613;BME280;67933;51.060;3.638;2023-10-13T13:37:38;100422.22;;;21.18;75.92